sensor_id;sensor_type;location;lat;lon;timestamp;temperature;humidity
24800;DHT22;12897;50.812;4.430;2022-11-15T00:01:16;12.50;99.90
24800;DHT22;12897;50.812;4.430;2022-11-15T00:03:39;12.60;99.90
24800;DHT22;12897;50.812;4.430;2022-11-15T00:06:07;12.70;99.90
24800;DHT22;12897;50.812;4.430;2022-11-15T00:08:34;12.70;99.90
24800;DHT22;12897;50.812;4.430;2022-11-15T00:11:03;12.60;99.90
24800;DHT22;12897;50.812;4.430;2022-11-15T00:13:30;12.80;99.90
24800;DHT22;12897;50.812;4.430;2022-11-15T00:15:59;12.70;99.90
24800;DHT22;12897;50.812;4.430;2022-11-15T00:18:28;12.90;99.90
24800;DHT22;12897;50.812;4.430;2022-11-15T00:21:02;12.90;99.90
24800;DHT22;12897;50.812;4.430;2022-11-15T00:23:25;12.80;99.90
24800;DHT22;12897;50.812;4.430;2022-11-15T00:25:57;12.90;99.90
24800;DHT22;12897;50.812;4.430;2022-11-15T00:28:26;12.60;99.90
24800;DHT22;12897;50.812;4.430;2022-11-15T00:30:53;12.80;99.90
24800;DHT22;12897;50.812;4.430;2022-11-15T00:33:21;12.80;99.90
24800;DHT22;12897;50.812;4.430;2022-11-15T00:35:49;12.70;99.90
24800;DHT22;12897;50.812;4.430;2022-11-15T00:38:16;12.50;99.90
24800;DHT22;12897;50.812;4.430;2022-11-15T00:40:44;12.50;99.90
24800;DHT22;12897;50.812;4.430;2022-11-15T00:43:11;12.50;99.90
24800;DHT22;12897;50.812;4.430;2022-11-15T00:45:39;12.40;99.90
24800;DHT22;12897;50.812;4.430;2022-11-15T00:48:06;12.50;99.90
24800;DHT22;12897;50.812;4.430;2022-11-15T00:50:34;12.60;99.90
24800;DHT22;12897;50.812;4.430;2022-11-15T00:53:02;12.70;99.90
24800;DHT22;12897;50.812;4.430;2022-11-15T00:55:29;12.70;99.90
24800;DHT22;12897;50.812;4.430;2022-11-15T00:57:57;12.60;99.90
24800;DHT22;12897;50.812;4.430;2022-11-15T01:00:24;12.60;99.90
24800;DHT22;12897;50.812;4.430;2022-11-15T01:02:52;12.80;99.90
24800;DHT22;12897;50.812;4.430;2022-11-15T01:05:19;12.80;99.90
24800;DHT22;12897;50.812;4.430;2022-11-15T01:07:50;12.90;99.90
24800;DHT22;12897;50.812;4.430;2022-11-15T01:10:16;12.90;99.90
24800;DHT22;12897;50.812;4.430;2022-11-15T01:12:44;12.80;99.90
24800;DHT22;12897;50.812;4.430;2022-11-15T01:15:11;12.90;99.90
24800;DHT22;12897;50.812;4.430;2022-11-15T01:17:39;12.90;99.90
24800;DHT22;12897;50.812;4.430;2022-11-15T01:20:08;12.80;99.90
24800;DHT22;12897;50.812;4.430;2022-11-15T01:22:36;12.80;99.90
24800;DHT22;12897;50.812;4.430;2022-11-15T01:25:03;12.70;99.90
24800;DHT22;12897;50.812;4.430;2022-11-15T01:27:31;12.80;99.90
24800;DHT22;12897;50.812;4.430;2022-11-15T01:29:58;12.70;99.90
24800;DHT22;12897;50.812;4.430;2022-11-15T01:32:26;12.60;99.90
24800;DHT22;12897;50.812;4.430;2022-11-15T01:34:53;12.60;99.90
24800;DHT22;12897;50.812;4.430;2022-11-15T01:37:21;12.60;99.90
24800;DHT22;12897;50.812;4.430;2022-11-15T01:39:48;12.60;99.90
24800;DHT22;12897;50.812;4.430;2022-11-15T01:42:16;12.60;99.90
24800;DHT22;12897;50.812;4.430;2022-11-15T01:44:47;12.80;99.90
24800;DHT22;12897;50.812;4.430;2022-11-15T01:47:18;12.80;99.90
24800;DHT22;12897;50.812;4.430;2022-11-15T01:49:52;12.80;99.90
24800;DHT22;12897;50.812;4.430;2022-11-15T01:52:21;12.70;99.90
24800;DHT22;12897;50.812;4.430;2022-11-15T01:54:53;12.80;99.90
24800;DHT22;12897;50.812;4.430;2022-11-15T01:57:20;12.80;99.90
24800;DHT22;12897;50.812;4.430;2022-11-15T01:59:48;12.60;99.90
24800;DHT22;12897;50.812;4.430;2022-11-15T02:02:21;12.50;99.90
24800;DHT22;12897;50.812;4.430;2022-11-15T02:04:49;12.60;99.90
24800;DHT22;12897;50.812;4.430;2022-11-15T02:07:18;12.60;99.90
24800;DHT22;12897;50.812;4.430;2022-11-15T02:09:47;12.90;99.90
24800;DHT22;12897;50.812;4.430;2022-11-15T02:12:18;12.90;99.90
24800;DHT22;12897;50.812;4.430;2022-11-15T02:14:52;12.90;99.90
24800;DHT22;12897;50.812;4.430;2022-11-15T02:31:45;12.90;99.90
24800;DHT22;12897;50.812;4.430;2022-11-15T02:34:26;13.00;99.90
24800;DHT22;12897;50.812;4.430;2022-11-15T02:37:07;13.00;99.90
24800;DHT22;12897;50.812;4.430;2022-11-15T02:39:35;13.00;99.90
24800;DHT22;12897;50.812;4.430;2022-11-15T02:42:08;13.10;99.90
24800;DHT22;12897;50.812;4.430;2022-11-15T02:44:42;13.00;99.90
24800;DHT22;12897;50.812;4.430;2022-11-15T02:47:11;12.90;99.90
24800;DHT22;12897;50.812;4.430;2022-11-15T02:49:41;12.80;99.90
24800;DHT22;12897;50.812;4.430;2022-11-15T02:52:15;12.80;99.90
24800;DHT22;12897;50.812;4.430;2022-11-15T02:54:40;12.80;99.90
24800;DHT22;12897;50.812;4.430;2022-11-15T02:57:13;12.80;99.90
24800;DHT22;12897;50.812;4.430;2022-11-15T02:59:44;12.70;99.90
24800;DHT22;12897;50.812;4.430;2022-11-15T03:11:09;12.90;99.90
24800;DHT22;12897;50.812;4.430;2022-11-15T03:13:40;13.00;99.90
24800;DHT22;12897;50.812;4.430;2022-11-15T03:16:18;13.10;99.90
24800;DHT22;12897;50.812;4.430;2022-11-15T03:18:47;13.10;99.90
24800;DHT22;12897;50.812;4.430;2022-11-15T03:21:22;13.00;99.90
24800;DHT22;12897;50.812;4.430;2022-11-15T03:23:51;13.00;99.90
24800;DHT22;12897;50.812;4.430;2022-11-15T03:26:21;12.90;99.90
24800;DHT22;12897;50.812;4.430;2022-11-15T03:29:01;13.00;99.90
24800;DHT22;12897;50.812;4.430;2022-11-15T03:31:26;12.70;99.90
24800;DHT22;12897;50.812;4.430;2022-11-15T03:34:37;12.60;99.90
24800;DHT22;12897;50.812;4.430;2022-11-15T03:36:43;12.60;99.90
24800;DHT22;12897;50.812;4.430;2022-11-15T03:39:13;12.50;99.90
24800;DHT22;12897;50.812;4.430;2022-11-15T03:42:09;12.60;99.90
24800;DHT22;12897;50.812;4.430;2022-11-15T03:44:42;12.70;99.90
24800;DHT22;12897;50.812;4.430;2022-11-15T03:47:19;13.00;99.90
24800;DHT22;12897;50.812;4.430;2022-11-15T03:49:57;13.00;99.90
24800;DHT22;12897;50.812;4.430;2022-11-15T03:52:21;12.80;99.90
24800;DHT22;12897;50.812;4.430;2022-11-15T03:54:51;12.90;99.90
24800;DHT22;12897;50.812;4.430;2022-11-15T03:57:19;12.60;99.90
24800;DHT22;12897;50.812;4.430;2022-11-15T03:59:47;12.50;99.90
24800;DHT22;12897;50.812;4.430;2022-11-15T04:02:14;12.50;99.90
24800;DHT22;12897;50.812;4.430;2022-11-15T04:04:42;12.50;99.90
24800;DHT22;12897;50.812;4.430;2022-11-15T04:07:09;12.50;99.90
24800;DHT22;12897;50.812;4.430;2022-11-15T04:09:37;12.40;99.90
24800;DHT22;12897;50.812;4.430;2022-11-15T04:12:22;12.30;99.90
24800;DHT22;12897;50.812;4.430;2022-11-15T04:14:52;12.50;99.90
24800;DHT22;12897;50.812;4.430;2022-11-15T04:17:21;12.40;99.90
24800;DHT22;12897;50.812;4.430;2022-11-15T04:19:48;12.30;99.90
24800;DHT22;12897;50.812;4.430;2022-11-15T04:22:34;12.40;99.90
24800;DHT22;12897;50.812;4.430;2022-11-15T04:25:19;12.20;99.90
24800;DHT22;12897;50.812;4.430;2022-11-15T04:27:47;12.50;99.90
24800;DHT22;12897;50.812;4.430;2022-11-15T04:30:14;12.60;99.90
24800;DHT22;12897;50.812;4.430;2022-11-15T04:32:42;12.70;99.90
24800;DHT22;12897;50.812;4.430;2022-11-15T04:35:10;12.60;99.90
24800;DHT22;12897;50.812;4.430;2022-11-15T04:37:38;12.70;99.90
24800;DHT22;12897;50.812;4.430;2022-11-15T04:40:06;12.90;99.90
24800;DHT22;12897;50.812;4.430;2022-11-15T04:42:34;12.90;99.90
24800;DHT22;12897;50.812;4.430;2022-11-15T04:45:04;12.60;99.90
24800;DHT22;12897;50.812;4.430;2022-11-15T04:47:32;12.60;99.90
24800;DHT22;12897;50.812;4.430;2022-11-15T04:49:59;12.40;99.90
24800;DHT22;12897;50.812;4.430;2022-11-15T04:52:27;12.60;99.90
24800;DHT22;12897;50.812;4.430;2022-11-15T04:54:54;12.70;99.90
24800;DHT22;12897;50.812;4.430;2022-11-15T04:57:41;12.40;99.90
24800;DHT22;12897;50.812;4.430;2022-11-15T05:00:11;12.20;99.90
24800;DHT22;12897;50.812;4.430;2022-11-15T05:02:39;12.20;99.90
24800;DHT22;12897;50.812;4.430;2022-11-15T05:05:25;12.10;99.90
24800;DHT22;12897;50.812;4.430;2022-11-15T05:07:53;12.00;99.90
24800;DHT22;12897;50.812;4.430;2022-11-15T05:10:20;12.10;99.90
24800;DHT22;12897;50.812;4.430;2022-11-15T05:12:48;12.10;99.90
24800;DHT22;12897;50.812;4.430;2022-11-15T05:15:16;12.10;99.90
24800;DHT22;12897;50.812;4.430;2022-11-15T05:17:43;12.20;99.90
24800;DHT22;12897;50.812;4.430;2022-11-15T05:20:11;12.10;99.90
24800;DHT22;12897;50.812;4.430;2022-11-15T05:22:39;12.10;99.90
24800;DHT22;12897;50.812;4.430;2022-11-15T05:25:07;12.10;99.90
24800;DHT22;12897;50.812;4.430;2022-11-15T05:27:35;12.10;99.90
24800;DHT22;12897;50.812;4.430;2022-11-15T05:30:03;12.10;99.90
24800;DHT22;12897;50.812;4.430;2022-11-15T05:32:31;11.90;99.90
24800;DHT22;12897;50.812;4.430;2022-11-15T05:34:59;12.00;99.90
24800;DHT22;12897;50.812;4.430;2022-11-15T05:37:27;11.90;99.90
24800;DHT22;12897;50.812;4.430;2022-11-15T05:39:56;11.80;99.90
24800;DHT22;12897;50.812;4.430;2022-11-15T05:42:25;11.60;99.90
24800;DHT22;12897;50.812;4.430;2022-11-15T05:44:53;11.50;99.90
24800;DHT22;12897;50.812;4.430;2022-11-15T05:47:23;11.50;99.90
24800;DHT22;12897;50.812;4.430;2022-11-15T05:49:52;11.40;99.90
24800;DHT22;12897;50.812;4.430;2022-11-15T05:52:24;11.30;99.90
24800;DHT22;12897;50.812;4.430;2022-11-15T05:54:52;11.20;99.90
24800;DHT22;12897;50.812;4.430;2022-11-15T05:57:20;11.30;99.90
24800;DHT22;12897;50.812;4.430;2022-11-15T05:59:48;11.30;99.90
24800;DHT22;12897;50.812;4.430;2022-11-15T06:02:17;11.20;99.90
24800;DHT22;12897;50.812;4.430;2022-11-15T06:04:44;11.30;99.90
24800;DHT22;12897;50.812;4.430;2022-11-15T06:07:12;11.30;99.90
24800;DHT22;12897;50.812;4.430;2022-11-15T06:09:39;11.40;99.90
24800;DHT22;12897;50.812;4.430;2022-11-15T06:12:07;11.70;99.90
24800;DHT22;12897;50.812;4.430;2022-11-15T06:14:35;11.70;99.90
24800;DHT22;12897;50.812;4.430;2022-11-15T06:17:02;11.60;99.90
24800;DHT22;12897;50.812;4.430;2022-11-15T06:19:30;11.50;99.90
24800;DHT22;12897;50.812;4.430;2022-11-15T06:22:00;11.50;99.90
24800;DHT22;12897;50.812;4.430;2022-11-15T06:24:28;11.50;99.90
24800;DHT22;12897;50.812;4.430;2022-11-15T06:26:56;11.40;99.90
24800;DHT22;12897;50.812;4.430;2022-11-15T06:29:24;11.40;99.90
24800;DHT22;12897;50.812;4.430;2022-11-15T06:31:52;11.20;99.90
24800;DHT22;12897;50.812;4.430;2022-11-15T06:34:19;11.10;99.90
24800;DHT22;12897;50.812;4.430;2022-11-15T06:36:47;11.00;99.90
24800;DHT22;12897;50.812;4.430;2022-11-15T06:39:15;11.00;99.90
24800;DHT22;12897;50.812;4.430;2022-11-15T06:41:43;11.10;99.90
24800;DHT22;12897;50.812;4.430;2022-11-15T06:44:10;11.10;99.90
24800;DHT22;12897;50.812;4.430;2022-11-15T06:46:38;11.10;99.90
24800;DHT22;12897;50.812;4.430;2022-11-15T06:49:05;11.00;99.90
24800;DHT22;12897;50.812;4.430;2022-11-15T06:51:33;11.00;99.90
24800;DHT22;12897;50.812;4.430;2022-11-15T06:54:00;10.90;99.90
24800;DHT22;12897;50.812;4.430;2022-11-15T06:56:28;11.00;99.90
24800;DHT22;12897;50.812;4.430;2022-11-15T06:58:56;10.90;99.90
24800;DHT22;12897;50.812;4.430;2022-11-15T07:01:23;11.00;99.90
24800;DHT22;12897;50.812;4.430;2022-11-15T07:03:51;10.90;99.90
24800;DHT22;12897;50.812;4.430;2022-11-15T07:06:18;10.90;99.90
24800;DHT22;12897;50.812;4.430;2022-11-15T07:08:46;10.70;99.90
24800;DHT22;12897;50.812;4.430;2022-11-15T07:11:14;10.70;99.90
24800;DHT22;12897;50.812;4.430;2022-11-15T07:13:42;10.80;99.90
24800;DHT22;12897;50.812;4.430;2022-11-15T07:16:10;10.70;99.90
24800;DHT22;12897;50.812;4.430;2022-11-15T07:18:39;10.70;99.90
24800;DHT22;12897;50.812;4.430;2022-11-15T07:21:10;10.80;99.90
24800;DHT22;12897;50.812;4.430;2022-11-15T07:23:39;10.80;99.90
24800;DHT22;12897;50.812;4.430;2022-11-15T07:26:08;10.60;99.90
24800;DHT22;12897;50.812;4.430;2022-11-15T07:28:35;10.60;99.90
24800;DHT22;12897;50.812;4.430;2022-11-15T07:31:04;10.50;99.90
24800;DHT22;12897;50.812;4.430;2022-11-15T07:33:32;10.50;99.90
24800;DHT22;12897;50.812;4.430;2022-11-15T07:36:01;10.60;99.90
24800;DHT22;12897;50.812;4.430;2022-11-15T07:38:29;10.70;99.90
24800;DHT22;12897;50.812;4.430;2022-11-15T07:41:02;10.70;99.90
24800;DHT22;12897;50.812;4.430;2022-11-15T07:43:30;10.70;99.90
24800;DHT22;12897;50.812;4.430;2022-11-15T07:45:59;10.70;99.90
24800;DHT22;12897;50.812;4.430;2022-11-15T07:48:28;10.80;99.90
24800;DHT22;12897;50.812;4.430;2022-11-15T07:50:55;10.80;99.90
24800;DHT22;12897;50.812;4.430;2022-11-15T07:53:23;10.80;99.90
24800;DHT22;12897;50.812;4.430;2022-11-15T07:55:50;10.80;99.90
24800;DHT22;12897;50.812;4.430;2022-11-15T07:58:20;10.90;99.90
24800;DHT22;12897;50.812;4.430;2022-11-15T08:00:47;11.00;99.90
24800;DHT22;12897;50.812;4.430;2022-11-15T08:03:16;11.00;99.90
24800;DHT22;12897;50.812;4.430;2022-11-15T08:05:49;11.00;99.90
24800;DHT22;12897;50.812;4.430;2022-11-15T08:08:14;11.00;99.90
24800;DHT22;12897;50.812;4.430;2022-11-15T08:10:42;11.00;99.90
24800;DHT22;12897;50.812;4.430;2022-11-15T08:13:11;10.90;99.90
24800;DHT22;12897;50.812;4.430;2022-11-15T08:15:40;10.90;99.90
24800;DHT22;12897;50.812;4.430;2022-11-15T08:18:10;10.90;99.90
24800;DHT22;12897;50.812;4.430;2022-11-15T08:20:38;10.80;99.90
24800;DHT22;12897;50.812;4.430;2022-11-15T08:23:07;10.90;99.90
24800;DHT22;12897;50.812;4.430;2022-11-15T08:25:35;11.00;99.90
24800;DHT22;12897;50.812;4.430;2022-11-15T08:28:06;10.90;99.90
24800;DHT22;12897;50.812;4.430;2022-11-15T08:30:41;10.80;99.90
24800;DHT22;12897;50.812;4.430;2022-11-15T08:33:12;10.90;99.90
24800;DHT22;12897;50.812;4.430;2022-11-15T08:35:41;10.90;99.90
24800;DHT22;12897;50.812;4.430;2022-11-15T08:38:09;10.90;99.90
24800;DHT22;12897;50.812;4.430;2022-11-15T08:40:37;10.90;99.90
24800;DHT22;12897;50.812;4.430;2022-11-15T08:43:05;11.00;99.90
24800;DHT22;12897;50.812;4.430;2022-11-15T08:45:34;11.00;99.90
24800;DHT22;12897;50.812;4.430;2022-11-15T08:48:03;11.00;99.90
24800;DHT22;12897;50.812;4.430;2022-11-15T08:50:32;10.90;99.90
24800;DHT22;12897;50.812;4.430;2022-11-15T08:53:07;11.00;99.90
24800;DHT22;12897;50.812;4.430;2022-11-15T08:55:39;11.00;99.90
24800;DHT22;12897;50.812;4.430;2022-11-15T08:58:07;11.00;99.90
24800;DHT22;12897;50.812;4.430;2022-11-15T09:00:35;11.10;99.90
24800;DHT22;12897;50.812;4.430;2022-11-15T09:03:07;11.10;99.90
24800;DHT22;12897;50.812;4.430;2022-11-15T09:05:39;11.20;99.90
24800;DHT22;12897;50.812;4.430;2022-11-15T09:08:07;11.20;99.90
24800;DHT22;12897;50.812;4.430;2022-11-15T09:10:35;11.30;99.90
24800;DHT22;12897;50.812;4.430;2022-11-15T09:13:03;11.30;99.90
24800;DHT22;12897;50.812;4.430;2022-11-15T09:15:30;11.40;99.90
24800;DHT22;12897;50.812;4.430;2022-11-15T09:18:01;11.40;99.90
24800;DHT22;12897;50.812;4.430;2022-11-15T09:20:28;11.50;99.90
24800;DHT22;12897;50.812;4.430;2022-11-15T09:23:00;11.60;99.90
24800;DHT22;12897;50.812;4.430;2022-11-15T09:25:29;11.60;99.90
24800;DHT22;12897;50.812;4.430;2022-11-15T09:27:57;11.70;99.90
24800;DHT22;12897;50.812;4.430;2022-11-15T09:30:25;11.50;99.90
24800;DHT22;12897;50.812;4.430;2022-11-15T09:32:52;11.60;99.90
24800;DHT22;12897;50.812;4.430;2022-11-15T09:35:20;11.60;99.90
24800;DHT22;12897;50.812;4.430;2022-11-15T09:37:47;11.60;99.90
24800;DHT22;12897;50.812;4.430;2022-11-15T09:40:16;11.70;99.90
24800;DHT22;12897;50.812;4.430;2022-11-15T09:45:52;11.80;99.90
24800;DHT22;12897;50.812;4.430;2022-11-15T09:50:53;12.00;99.90
24800;DHT22;12897;50.812;4.430;2022-11-15T09:53:40;12.00;99.90
24800;DHT22;12897;50.812;4.430;2022-11-15T09:56:24;12.00;99.90
24800;DHT22;12897;50.812;4.430;2022-11-15T09:58:51;12.10;99.90
24800;DHT22;12897;50.812;4.430;2022-11-15T10:01:19;12.10;99.90
24800;DHT22;12897;50.812;4.430;2022-11-15T10:03:46;12.10;99.90
24800;DHT22;12897;50.812;4.430;2022-11-15T10:06:21;12.10;99.90
24800;DHT22;12897;50.812;4.430;2022-11-15T10:11:29;12.10;99.90
24800;DHT22;12897;50.812;4.430;2022-11-15T10:14:02;12.10;99.90
24800;DHT22;12897;50.812;4.430;2022-11-15T10:16:57;12.10;99.90
24800;DHT22;12897;50.812;4.430;2022-11-15T10:22:21;12.20;99.90
24800;DHT22;12897;50.812;4.430;2022-11-15T10:24:45;12.30;99.90
24800;DHT22;12897;50.812;4.430;2022-11-15T10:27:17;12.30;99.90
24800;DHT22;12897;50.812;4.430;2022-11-15T10:29:47;12.40;99.90
24800;DHT22;12897;50.812;4.430;2022-11-15T10:32:17;12.30;99.90
24800;DHT22;12897;50.812;4.430;2022-11-15T10:34:46;12.30;99.90
24800;DHT22;12897;50.812;4.430;2022-11-15T10:37:14;12.40;99.90
24800;DHT22;12897;50.812;4.430;2022-11-15T10:39:42;12.50;99.90
24800;DHT22;12897;50.812;4.430;2022-11-15T10:42:28;12.60;99.90
24800;DHT22;12897;50.812;4.430;2022-11-15T10:44:52;12.50;99.90
24800;DHT22;12897;50.812;4.430;2022-11-15T10:47:25;12.50;99.90
24800;DHT22;12897;50.812;4.430;2022-11-15T10:49:59;12.60;99.90
24800;DHT22;12897;50.812;4.430;2022-11-15T10:52:24;12.60;99.90
24800;DHT22;12897;50.812;4.430;2022-11-15T10:54:58;12.60;99.90
24800;DHT22;12897;50.812;4.430;2022-11-15T10:57:28;12.70;99.90
24800;DHT22;12897;50.812;4.430;2022-11-15T10:59:59;12.70;99.90
24800;DHT22;12897;50.812;4.430;2022-11-15T11:05:01;12.80;99.90
24800;DHT22;12897;50.812;4.430;2022-11-15T11:07:31;12.80;99.90
24800;DHT22;12897;50.812;4.430;2022-11-15T11:10:20;12.90;99.90
24800;DHT22;12897;50.812;4.430;2022-11-15T11:12:47;12.90;99.90
24800;DHT22;12897;50.812;4.430;2022-11-15T11:15:16;13.00;99.90
24800;DHT22;12897;50.812;4.430;2022-11-15T11:18:06;13.00;99.90
24800;DHT22;12897;50.812;4.430;2022-11-15T11:20:47;13.10;99.90
24800;DHT22;12897;50.812;4.430;2022-11-15T11:26:16;13.20;99.90
24800;DHT22;12897;50.812;4.430;2022-11-15T11:48:43;13.50;99.90
24800;DHT22;12897;50.812;4.430;2022-11-15T11:51:27;13.70;99.90
24800;DHT22;12897;50.812;4.430;2022-11-15T11:54:00;13.80;99.90
24800;DHT22;12897;50.812;4.430;2022-11-15T11:56:31;13.60;99.90
24800;DHT22;12897;50.812;4.430;2022-11-15T11:59:07;13.60;99.90
24800;DHT22;12897;50.812;4.430;2022-11-15T12:01:39;13.60;99.90
24800;DHT22;12897;50.812;4.430;2022-11-15T12:04:18;13.70;99.90
24800;DHT22;12897;50.812;4.430;2022-11-15T12:07:03;13.80;99.90
24800;DHT22;12897;50.812;4.430;2022-11-15T12:09:44;13.90;99.90
24800;DHT22;12897;50.812;4.430;2022-11-15T12:12:19;14.00;99.90
24800;DHT22;12897;50.812;4.430;2022-11-15T12:14:48;14.00;99.90
24800;DHT22;12897;50.812;4.430;2022-11-15T12:17:19;13.90;99.90
24800;DHT22;12897;50.812;4.430;2022-11-15T12:19:47;13.80;99.90
24800;DHT22;12897;50.812;4.430;2022-11-15T12:22:24;13.70;99.90
24800;DHT22;12897;50.812;4.430;2022-11-15T12:25:01;13.80;99.90
24800;DHT22;12897;50.812;4.430;2022-11-15T12:27:39;13.80;99.90
24800;DHT22;12897;50.812;4.430;2022-11-15T12:30:22;13.80;99.90
24800;DHT22;12897;50.812;4.430;2022-11-15T12:32:53;13.90;99.90
24800;DHT22;12897;50.812;4.430;2022-11-15T12:35:37;13.90;99.90
24800;DHT22;12897;50.812;4.430;2022-11-15T12:38:10;14.00;99.90
24800;DHT22;12897;50.812;4.430;2022-11-15T12:41:12;13.90;99.90
24800;DHT22;12897;50.812;4.430;2022-11-15T12:45:46;13.90;99.90
24800;DHT22;12897;50.812;4.430;2022-11-15T12:53:27;14.10;99.90
24800;DHT22;12897;50.812;4.430;2022-11-15T12:58:53;14.10;99.90
24800;DHT22;12897;50.812;4.430;2022-11-15T13:04:27;14.30;99.90
24800;DHT22;12897;50.812;4.430;2022-11-15T13:07:05;14.30;99.90
24800;DHT22;12897;50.812;4.430;2022-11-15T13:15:07;14.70;99.90
24800;DHT22;12897;50.812;4.430;2022-11-15T13:17:30;14.40;99.90
24800;DHT22;12897;50.812;4.430;2022-11-15T13:22:38;14.40;99.90
24800;DHT22;12897;50.812;4.430;2022-11-15T13:30:58;14.40;99.90
24800;DHT22;12897;50.812;4.430;2022-11-15T13:33:38;14.30;99.90
24800;DHT22;12897;50.812;4.430;2022-11-15T13:36:09;14.20;99.90
24800;DHT22;12897;50.812;4.430;2022-11-15T13:38:38;14.10;99.90
24800;DHT22;12897;50.812;4.430;2022-11-15T13:41:17;14.10;99.90
24800;DHT22;12897;50.812;4.430;2022-11-15T13:43:42;14.10;99.90
24800;DHT22;12897;50.812;4.430;2022-11-15T13:46:19;14.10;99.90
24800;DHT22;12897;50.812;4.430;2022-11-15T13:48:53;14.00;99.90
24800;DHT22;12897;50.812;4.430;2022-11-15T13:56:48;14.10;99.90
24800;DHT22;12897;50.812;4.430;2022-11-15T13:59:23;14.10;99.90
24800;DHT22;12897;50.812;4.430;2022-11-15T14:01:45;14.20;99.90
24800;DHT22;12897;50.812;4.430;2022-11-15T14:04:17;14.30;99.90
24800;DHT22;12897;50.812;4.430;2022-11-15T14:06:52;14.30;99.90
24800;DHT22;12897;50.812;4.430;2022-11-15T14:09:29;14.20;99.90
24800;DHT22;12897;50.812;4.430;2022-11-15T14:12:00;14.30;99.90
24800;DHT22;12897;50.812;4.430;2022-11-15T14:14:34;14.30;99.90
24800;DHT22;12897;50.812;4.430;2022-11-15T14:16:58;14.20;99.90
24800;DHT22;12897;50.812;4.430;2022-11-15T14:22:13;14.20;99.90
24800;DHT22;12897;50.812;4.430;2022-11-15T14:24:43;14.20;99.90
24800;DHT22;12897;50.812;4.430;2022-11-15T14:27:27;14.10;99.90
24800;DHT22;12897;50.812;4.430;2022-11-15T14:29:55;14.00;99.90
24800;DHT22;12897;50.812;4.430;2022-11-15T14:32:25;14.00;99.90
24800;DHT22;12897;50.812;4.430;2022-11-15T14:35:00;14.00;99.90
24800;DHT22;12897;50.812;4.430;2022-11-15T14:37:30;14.10;99.90
24800;DHT22;12897;50.812;4.430;2022-11-15T14:40:04;14.10;99.90
24800;DHT22;12897;50.812;4.430;2022-11-15T14:42:32;14.20;99.90
24800;DHT22;12897;50.812;4.430;2022-11-15T14:45:00;14.00;99.90
24800;DHT22;12897;50.812;4.430;2022-11-15T14:47:29;14.10;99.90
24800;DHT22;12897;50.812;4.430;2022-11-15T14:49:56;14.10;99.90
24800;DHT22;12897;50.812;4.430;2022-11-15T14:52:29;14.10;99.90
24800;DHT22;12897;50.812;4.430;2022-11-15T14:55:01;14.00;99.90
24800;DHT22;12897;50.812;4.430;2022-11-15T14:57:28;14.10;99.90
24800;DHT22;12897;50.812;4.430;2022-11-15T14:59:56;13.90;99.90
24800;DHT22;12897;50.812;4.430;2022-11-15T15:02:26;14.00;99.90
24800;DHT22;12897;50.812;4.430;2022-11-15T15:04:58;14.10;99.90
24800;DHT22;12897;50.812;4.430;2022-11-15T15:07:27;14.10;99.90
24800;DHT22;12897;50.812;4.430;2022-11-15T15:09:56;14.00;99.90
24800;DHT22;12897;50.812;4.430;2022-11-15T15:12:27;14.00;99.90
24800;DHT22;12897;50.812;4.430;2022-11-15T15:15:00;14.00;99.90
24800;DHT22;12897;50.812;4.430;2022-11-15T15:17:35;14.10;99.90
24800;DHT22;12897;50.812;4.430;2022-11-15T15:20:07;14.10;99.90
24800;DHT22;12897;50.812;4.430;2022-11-15T15:22:37;13.90;99.90
24800;DHT22;12897;50.812;4.430;2022-11-15T15:25:15;13.90;99.90
24800;DHT22;12897;50.812;4.430;2022-11-15T15:27:41;13.80;99.90
24800;DHT22;12897;50.812;4.430;2022-11-15T15:30:11;13.80;99.90
24800;DHT22;12897;50.812;4.430;2022-11-15T15:32:38;13.70;99.90
24800;DHT22;12897;50.812;4.430;2022-11-15T15:35:10;13.70;99.90
24800;DHT22;12897;50.812;4.430;2022-11-15T15:37:43;13.70;99.90
24800;DHT22;12897;50.812;4.430;2022-11-15T15:40:16;13.70;99.90
24800;DHT22;12897;50.812;4.430;2022-11-15T15:42:54;13.60;99.90
24800;DHT22;12897;50.812;4.430;2022-11-15T15:45:24;13.70;99.90
24800;DHT22;12897;50.812;4.430;2022-11-15T15:47:54;13.70;99.90
24800;DHT22;12897;50.812;4.430;2022-11-15T15:50:36;13.50;99.90
24800;DHT22;12897;50.812;4.430;2022-11-15T15:53:13;13.40;99.90
24800;DHT22;12897;50.812;4.430;2022-11-15T15:55:44;13.40;99.90
24800;DHT22;12897;50.812;4.430;2022-11-15T15:58:11;13.40;99.90
24800;DHT22;12897;50.812;4.430;2022-11-15T16:00:40;13.30;99.90
24800;DHT22;12897;50.812;4.430;2022-11-15T16:03:10;13.20;99.90
24800;DHT22;12897;50.812;4.430;2022-11-15T16:05:38;13.20;99.90
24800;DHT22;12897;50.812;4.430;2022-11-15T16:08:12;13.20;99.90
24800;DHT22;12897;50.812;4.430;2022-11-15T16:10:36;13.20;99.90
24800;DHT22;12897;50.812;4.430;2022-11-15T16:13:03;13.30;99.90
24800;DHT22;12897;50.812;4.430;2022-11-15T16:15:32;13.30;99.90
24800;DHT22;12897;50.812;4.430;2022-11-15T16:18:04;13.20;99.90
24800;DHT22;12897;50.812;4.430;2022-11-15T16:20:48;13.30;99.90
24800;DHT22;12897;50.812;4.430;2022-11-15T16:23:29;13.30;99.90
24800;DHT22;12897;50.812;4.430;2022-11-15T16:26:00;13.30;99.90
24800;DHT22;12897;50.812;4.430;2022-11-15T16:28:43;13.40;99.90
24800;DHT22;12897;50.812;4.430;2022-11-15T16:31:13;13.40;99.90
24800;DHT22;12897;50.812;4.430;2022-11-15T16:33:40;13.40;99.90
24800;DHT22;12897;50.812;4.430;2022-11-15T16:36:25;13.40;99.90
24800;DHT22;12897;50.812;4.430;2022-11-15T16:38:57;13.50;99.90
24800;DHT22;12897;50.812;4.430;2022-11-15T16:41:27;13.40;99.90
24800;DHT22;12897;50.812;4.430;2022-11-15T16:44:06;13.30;99.90
24800;DHT22;12897;50.812;4.430;2022-11-15T16:46:29;13.30;99.90
24800;DHT22;12897;50.812;4.430;2022-11-15T16:49:00;13.30;99.90
24800;DHT22;12897;50.812;4.430;2022-11-15T16:51:32;13.40;99.90
24800;DHT22;12897;50.812;4.430;2022-11-15T16:54:05;13.30;99.90
24800;DHT22;12897;50.812;4.430;2022-11-15T16:56:48;13.30;99.90
24800;DHT22;12897;50.812;4.430;2022-11-15T16:59:27;13.30;99.90
24800;DHT22;12897;50.812;4.430;2022-11-15T17:01:50;13.40;99.90
24800;DHT22;12897;50.812;4.430;2022-11-15T17:04:22;13.30;99.90
24800;DHT22;12897;50.812;4.430;2022-11-15T17:07:11;13.20;99.90
24800;DHT22;12897;50.812;4.430;2022-11-15T17:09:46;13.30;99.90
24800;DHT22;12897;50.812;4.430;2022-11-15T17:15:21;13.20;99.90
24800;DHT22;12897;50.812;4.430;2022-11-15T17:17:24;13.20;99.90
24800;DHT22;12897;50.812;4.430;2022-11-15T17:25:24;13.20;99.90
24800;DHT22;12897;50.812;4.430;2022-11-15T17:27:49;13.20;99.90
24800;DHT22;12897;50.812;4.430;2022-11-15T17:30:25;13.20;99.90
24800;DHT22;12897;50.812;4.430;2022-11-15T17:43:49;13.50;99.90
24800;DHT22;12897;50.812;4.430;2022-11-15T17:46:17;13.30;99.90